createdAt,value
2022-12-23T00:01:16.753Z,96.99
2022-12-23T00:03:49.312Z,96.93
2022-12-23T00:06:22.808Z,97.00
2022-12-23T00:08:58.884Z,96.99
2022-12-23T00:11:31.836Z,97.00
2022-12-23T00:14:22.277Z,97.02
2022-12-23T00:16:54.756Z,97.00
2022-12-23T00:19:27.530Z,96.76
2022-12-23T00:21:59.877Z,96.80
2022-12-23T00:24:32.224Z,97.02
2022-12-23T00:27:04.547Z,97.13
2022-12-23T00:29:38.427Z,96.91
2022-12-23T00:32:10.772Z,97.02
2022-12-23T00:34:43.173Z,96.84
2022-12-23T00:37:15.522Z,96.82
2022-12-23T00:40:06.964Z,96.91
2022-12-23T00:42:54.928Z,96.81
2022-12-23T00:45:27.565Z,96.75
2022-12-23T00:48:17.416Z,97.01
2022-12-23T00:50:52.353Z,96.92
2022-12-23T00:53:24.802Z,96.76
2022-12-23T00:55:57.385Z,97.01
2022-12-23T00:58:29.752Z,97.03
2022-12-23T01:01:20.067Z,97.20
2022-12-23T01:04:10.314Z,97.03
2022-12-23T01:06:42.690Z,96.93
2022-12-23T01:09:15.355Z,97.08
2022-12-23T01:11:47.744Z,97.04
2022-12-23T01:14:20.272Z,97.14
2022-12-23T01:16:52.661Z,97.36
2022-12-23T01:19:25.141Z,97.07
2022-12-23T01:21:57.799Z,96.71
2022-12-23T01:24:32.620Z,96.85
2022-12-23T01:27:04.986Z,96.54
2022-12-23T01:29:37.563Z,96.39
2022-12-23T01:32:10.013Z,96.66
2022-12-23T01:34:42.515Z,96.58
2022-12-23T01:37:14.923Z,96.67
2022-12-23T01:39:47.377Z,96.54
2022-12-23T01:42:39.544Z,96.47
2022-12-23T01:45:18.622Z,96.79
2022-12-23T01:47:57.543Z,96.42
2022-12-23T01:50:34.118Z,96.40
2022-12-23T01:53:09.680Z,96.24
2022-12-23T01:55:46.160Z,96.65
2022-12-23T01:58:22.063Z,96.46
2022-12-23T02:01:13.146Z,96.29
2022-12-23T02:03:46.992Z,96.34
2022-12-23T02:06:43.219Z,96.50
2022-12-23T02:09:21.011Z,96.41
2022-12-23T02:12:28.565Z,96.53
2022-12-23T02:15:31.354Z,96.39
2022-12-23T02:18:18.315Z,96.60
2022-12-23T02:21:12.192Z,96.49
2022-12-23T02:24:23.245Z,96.69
2022-12-23T02:27:10.723Z,96.22
2022-12-23T02:30:22.391Z,96.33
2022-12-23T02:33:15.305Z,96.14
2022-12-23T02:35:55.877Z,96.39
2022-12-23T02:38:33.407Z,96.28
2022-12-23T02:41:13.766Z,96.28
2022-12-23T02:43:50.183Z,96.45
2022-12-23T02:46:29.241Z,96.32
2022-12-23T02:49:06.142Z,96.54
2022-12-23T02:51:41.800Z,96.45
2022-12-23T02:54:18.722Z,96.32
2022-12-23T02:56:54.911Z,96.39
2022-12-23T02:59:31.993Z,96.16
2022-12-23T03:02:04.515Z,96.20
2022-12-23T03:04:38.402Z,96.07
2022-12-23T03:07:18.748Z,96.06
2022-12-23T03:09:59.651Z,95.69
2022-12-23T03:12:53.159Z,95.75
2022-12-23T03:15:39.786Z,95.94
2022-12-23T03:18:23.003Z,95.81
2022-12-23T03:21:04.710Z,95.80
2022-12-23T03:23:43.223Z,95.83
2022-12-23T03:26:22.516Z,95.54
2022-12-23T03:28:59.642Z,95.50
2022-12-23T03:31:34.701Z,95.33
2022-12-23T03:34:08.874Z,95.25
2022-12-23T03:36:45.930Z,95.41
2022-12-23T03:39:21.241Z,95.37
2022-12-23T03:41:57.609Z,95.31
2022-12-23T03:44:36.664Z,95.24
2022-12-23T03:47:13.880Z,95.20
2022-12-23T03:49:54.159Z,94.85
2022-12-23T03:52:32.317Z,94.82
2022-12-23T03:55:09.094Z,95.02
2022-12-23T03:57:46.530Z,94.74
2022-12-23T04:00:19.319Z,94.74
2022-12-23T04:03:00.733Z,94.96
2022-12-23T04:05:37.662Z,94.82
2022-12-23T04:08:17.275Z,94.62
2022-12-23T04:10:49.995Z,94.72
2022-12-23T04:13:22.379Z,94.60
2022-12-23T04:15:55.274Z,94.78
2022-12-23T04:18:28.313Z,94.53
2022-12-23T04:21:01.037Z,94.40
2022-12-23T04:23:33.441Z,94.49
2022-12-23T04:26:06.065Z,94.54
2022-12-23T04:28:38.411Z,94.74
2022-12-23T04:31:10.801Z,94.30
2022-12-23T04:33:43.260Z,94.29
2022-12-23T04:36:15.606Z,94.57
2022-12-23T04:38:47.884Z,94.81
2022-12-23T04:41:20.261Z,94.58
2022-12-23T04:43:53.362Z,94.75
2022-12-23T04:46:26.076Z,94.81
2022-12-23T04:48:58.547Z,94.56
2022-12-23T04:51:30.844Z,94.29
2022-12-23T04:54:03.273Z,94.46
2022-12-23T04:56:35.592Z,94.31
2022-12-23T04:59:07.950Z,94.23
2022-12-23T05:01:42.379Z,94.25
2022-12-23T05:04:15.599Z,94.05
2022-12-23T05:06:48.004Z,93.75
2022-12-23T05:09:20.989Z,93.67
2022-12-23T05:11:53.463Z,93.71
2022-12-23T05:14:25.844Z,93.55
2022-12-23T05:17:03.582Z,93.51
2022-12-23T05:19:39.522Z,93.83
2022-12-23T05:22:11.891Z,93.49
2022-12-23T05:24:44.244Z,93.74
2022-12-23T05:27:16.560Z,93.77
2022-12-23T05:29:48.985Z,93.71
2022-12-23T05:32:21.463Z,93.66
2022-12-23T05:34:53.780Z,93.72
2022-12-23T05:37:26.154Z,93.87
2022-12-23T05:39:58.629Z,93.92
2022-12-23T05:42:31.053Z,93.85
2022-12-23T05:45:03.533Z,93.42
2022-12-23T05:47:35.951Z,93.31
2022-12-23T05:50:11.547Z,93.34
2022-12-23T05:52:43.934Z,93.29
2022-12-23T05:55:16.387Z,93.19
2022-12-23T05:57:48.726Z,93.08
2022-12-23T06:00:25.493Z,93.07
2022-12-23T06:02:58.172Z,92.93
2022-12-23T06:05:30.690Z,92.78
2022-12-23T06:08:03.020Z,92.97
2022-12-23T06:10:35.391Z,93.23
2022-12-23T06:13:07.614Z,92.94
2022-12-23T06:15:39.888Z,92.89
2022-12-23T06:18:12.313Z,93.09
2022-12-23T06:20:46.202Z,93.00
2022-12-23T06:23:18.547Z,93.18
2022-12-23T06:25:50.921Z,92.93
2022-12-23T06:28:23.292Z,92.74
2022-12-23T06:30:57.186Z,93.05
2022-12-23T06:33:29.579Z,93.11
2022-12-23T06:36:01.946Z,92.85
2022-12-23T06:38:35.122Z,92.83
2022-12-23T06:41:08.860Z,92.57
2022-12-23T06:43:41.248Z,92.92
2022-12-23T06:46:13.776Z,92.85
2022-12-23T06:48:46.269Z,92.95
2022-12-23T06:51:18.718Z,92.46
2022-12-23T06:53:51.173Z,92.53
2022-12-23T06:56:23.540Z,92.57
2022-12-23T06:58:56.121Z,92.50
2022-12-23T07:01:28.674Z,92.57
2022-12-23T07:04:02.045Z,92.73
2022-12-23T07:06:34.502Z,92.77
2022-12-23T07:09:07.510Z,92.57
2022-12-23T07:11:39.965Z,92.84
2022-12-23T07:14:12.918Z,92.58
2022-12-23T07:16:45.453Z,92.63
2022-12-23T07:19:17.891Z,92.64
2022-12-23T07:21:50.290Z,92.40
2022-12-23T07:24:22.669Z,92.59
2022-12-23T07:26:56.075Z,92.49
2022-12-23T07:29:28.614Z,92.30
2022-12-23T07:32:01.994Z,92.47
2022-12-23T07:34:34.766Z,92.42
2022-12-23T07:37:07.065Z,92.42
2022-12-23T07:39:39.718Z,92.62
2022-12-23T07:45:06.156Z,92.27
2022-12-23T07:47:38.555Z,92.32
2022-12-23T07:50:13.118Z,92.39
2022-12-23T07:52:45.647Z,92.51
2022-12-23T07:55:18.229Z,92.92
2022-12-23T07:57:52.516Z,92.67
2022-12-23T08:00:25.493Z,92.81
2022-12-23T08:02:58.030Z,92.72
2022-12-23T08:05:30.704Z,92.88
2022-12-23T08:08:03.195Z,92.82
2022-12-23T08:10:35.590Z,92.90
2022-12-23T08:13:08.012Z,93.01
2022-12-23T08:15:40.359Z,93.07
2022-12-23T08:18:12.707Z,92.96
2022-12-23T08:20:45.159Z,92.72
2022-12-23T08:23:22.958Z,93.01
2022-12-23T08:26:03.951Z,92.95
2022-12-23T08:28:37.252Z,93.14
2022-12-23T08:31:12.489Z,93.26
2022-12-23T08:33:46.706Z,93.53
2022-12-23T08:36:23.304Z,93.25
2022-12-23T08:38:57.696Z,93.28
2022-12-23T08:41:32.496Z,93.25
2022-12-23T08:44:04.988Z,93.24
2022-12-23T08:46:38.144Z,93.31
2022-12-23T08:49:11.916Z,93.37
2022-12-23T08:51:44.634Z,93.71
2022-12-23T08:54:17.566Z,93.33
2022-12-23T08:56:49.959Z,93.83
2022-12-23T08:59:22.376Z,93.54
2022-12-23T09:01:54.822Z,93.40
2022-12-23T09:04:27.320Z,93.56
2022-12-23T09:06:59.873Z,93.51
2022-12-23T09:09:32.226Z,93.63
2022-12-23T09:12:04.777Z,93.76
2022-12-23T09:14:37.317Z,93.74
2022-12-23T09:17:09.721Z,93.64
2022-12-23T09:19:43.746Z,93.71
2022-12-23T09:22:19.625Z,93.88
2022-12-23T09:24:52.175Z,93.95
2022-12-23T09:27:24.527Z,94.26
2022-12-23T09:29:56.923Z,93.90
2022-12-23T09:32:29.307Z,93.76
2022-12-23T09:35:01.631Z,93.79
2022-12-23T09:37:34.028Z,93.82
2022-12-23T09:40:07.196Z,93.97
2022-12-23T09:42:54.863Z,93.88
2022-12-23T09:45:49.787Z,93.89
2022-12-23T09:48:26.799Z,94.24
2022-12-23T09:50:59.421Z,94.11
2022-12-23T09:53:45.953Z,94.15
2022-12-23T09:56:26.767Z,94.08
2022-12-23T09:59:12.509Z,94.40
2022-12-23T10:01:53.882Z,94.22
2022-12-23T10:04:43.168Z,94.21
2022-12-23T10:07:29.303Z,94.11
2022-12-23T10:10:07.418Z,94.27
2022-12-23T10:12:43.349Z,94.30
2022-12-23T10:15:27.288Z,94.34
2022-12-23T10:18:05.391Z,94.44
2022-12-23T10:20:45.652Z,94.53
2022-12-23T10:23:26.858Z,94.61
2022-12-23T10:25:59.385Z,94.56
2022-12-23T10:28:31.756Z,94.59
2022-12-23T10:31:39.203Z,94.55
2022-12-23T10:34:13.521Z,94.38
2022-12-23T10:36:55.078Z,94.53
2022-12-23T10:39:37.750Z,94.71
2022-12-23T10:42:22.542Z,94.75
2022-12-23T10:45:19.501Z,94.70
2022-12-23T10:48:02.099Z,94.68
2022-12-23T10:50:51.527Z,94.63
2022-12-23T10:53:33.524Z,94.68
2022-12-23T10:56:08.669Z,94.74
2022-12-23T10:58:42.567Z,94.67
2022-12-23T11:01:26.195Z,94.79
2022-12-23T11:04:08.641Z,94.75
2022-12-23T11:06:44.930Z,94.83
2022-12-23T11:09:21.476Z,94.69
2022-12-23T11:11:59.946Z,94.86
2022-12-23T11:14:39.283Z,94.82
2022-12-23T11:17:22.634Z,94.65
2022-12-23T11:20:14.270Z,94.72
2022-12-23T11:22:52.421Z,94.82
2022-12-23T11:25:34.930Z,94.89
2022-12-23T11:28:13.809Z,95.07
2022-12-23T11:30:57.185Z,95.11
2022-12-23T11:33:32.736Z,95.00
2022-12-23T11:36:08.673Z,95.27
2022-12-23T11:38:51.922Z,95.23
2022-12-23T11:41:28.105Z,95.14
2022-12-23T11:44:02.881Z,94.86
2022-12-23T11:46:36.461Z,94.56
2022-12-23T11:49:19.688Z,94.74
2022-12-23T11:52:03.113Z,94.88
2022-12-23T11:54:36.003Z,95.01
2022-12-23T11:57:17.724Z,95.17
2022-12-23T11:59:56.444Z,94.96
2022-12-23T12:02:36.707Z,94.91
2022-12-23T12:05:22.925Z,94.85
2022-12-23T12:07:59.754Z,94.73
2022-12-23T12:10:35.611Z,94.83
2022-12-23T12:13:18.017Z,94.80
2022-12-23T12:15:57.943Z,94.69
2022-12-23T12:18:30.908Z,94.92
2022-12-23T12:21:06.916Z,94.96
2022-12-23T12:23:45.422Z,95.01
2022-12-23T12:26:25.150Z,94.83
2022-12-23T12:29:04.251Z,94.47
2022-12-23T12:31:40.901Z,94.64
2022-12-23T12:34:33.427Z,94.44
2022-12-23T12:37:16.959Z,94.30
2022-12-23T12:39:57.623Z,93.92
2022-12-23T12:42:36.498Z,94.03
2022-12-23T12:45:22.146Z,93.92
2022-12-23T12:48:18.741Z,94.11
2022-12-23T12:51:02.414Z,94.01
2022-12-23T12:53:37.192Z,94.46
2022-12-23T12:56:16.558Z,94.63
2022-12-23T12:58:48.877Z,94.55
2022-12-23T13:01:35.631Z,94.71
2022-12-23T13:04:34.221Z,94.31
2022-12-23T13:07:14.612Z,94.59
2022-12-23T13:09:56.734Z,94.54
2022-12-23T13:12:41.010Z,94.72
2022-12-23T13:15:21.688Z,94.64
2022-12-23T13:18:12.942Z,94.45
2022-12-23T13:20:52.461Z,94.13
2022-12-23T13:23:47.865Z,93.98
2022-12-23T13:26:33.951Z,94.36
2022-12-23T13:29:30.977Z,94.33
2022-12-23T13:32:15.145Z,94.36
2022-12-23T13:34:57.190Z,94.04
2022-12-23T13:37:40.688Z,94.12
2022-12-23T13:40:28.770Z,93.91
2022-12-23T13:43:06.901Z,94.17
2022-12-23T13:45:42.784Z,94.46
2022-12-23T13:48:38.073Z,94.53
2022-12-23T13:51:15.444Z,94.57
2022-12-23T13:54:04.177Z,94.77
2022-12-23T13:56:44.100Z,94.56
2022-12-23T13:59:18.279Z,94.50
2022-12-23T14:01:52.899Z,94.37
2022-12-23T14:04:57.797Z,93.98
2022-12-23T14:07:33.114Z,93.98
2022-12-23T14:10:21.780Z,94.06
2022-12-23T14:13:04.077Z,94.12
2022-12-23T14:16:09.518Z,94.23
2022-12-23T14:18:57.481Z,94.29
2022-12-23T14:21:40.388Z,94.05
2022-12-23T14:24:38.810Z,93.57
2022-12-23T14:27:43.006Z,93.32
2022-12-23T14:30:19.222Z,93.36
2022-12-23T14:32:53.894Z,93.56
2022-12-23T14:35:49.265Z,93.70
2022-12-23T14:38:30.231Z,93.57
2022-12-23T14:41:26.208Z,93.79
2022-12-23T14:44:02.881Z,93.43
2022-12-23T14:46:59.224Z,93.33
2022-12-23T14:49:44.175Z,93.09
2022-12-23T14:52:51.007Z,93.13
2022-12-23T14:55:48.124Z,93.09
2022-12-23T14:58:35.112Z,92.70
2022-12-23T15:01:14.221Z,92.68
2022-12-23T15:03:54.599Z,92.74
2022-12-23T15:06:37.871Z,92.68
2022-12-23T15:09:23.733Z,92.92
2022-12-23T15:11:58.789Z,92.52
2022-12-23T15:14:36.631Z,92.50
2022-12-23T15:17:25.843Z,92.50
2022-12-23T15:20:09.356Z,92.48
2022-12-23T15:22:43.401Z,92.60
2022-12-23T15:25:33.639Z,92.58
2022-12-23T15:28:06.757Z,92.54
2022-12-23T15:30:48.368Z,92.90
2022-12-23T15:34:00.545Z,92.40
2022-12-23T15:36:22.722Z,92.25
2022-12-23T15:38:55.133Z,92.27
2022-12-23T15:41:27.811Z,92.33
2022-12-23T15:44:01.950Z,92.48
2022-12-23T15:46:35.416Z,92.09
2022-12-23T15:49:07.954Z,92.03
2022-12-23T15:54:41.619Z,92.18
2022-12-23T15:57:21.398Z,92.18
2022-12-23T15:59:54.569Z,92.42
2022-12-23T16:05:30.834Z,92.10
2022-12-23T16:08:30.180Z,92.25
2022-12-23T16:11:13.776Z,92.22
2022-12-23T16:13:58.780Z,92.20
2022-12-23T16:16:41.617Z,91.92
2022-12-23T16:19:40.487Z,92.28
2022-12-23T16:22:20.773Z,92.13
2022-12-23T16:24:58.109Z,92.21
2022-12-23T16:27:38.741Z,91.90
2022-12-23T16:30:19.375Z,91.72
2022-12-23T16:32:55.261Z,91.67
2022-12-23T16:35:39.852Z,91.71
2022-12-23T16:38:18.488Z,91.65
2022-12-23T16:40:53.132Z,91.57
2022-12-23T16:43:26.545Z,91.64
2022-12-23T16:46:00.072Z,91.60
2022-12-23T16:48:35.618Z,91.57
2022-12-23T16:51:11.864Z,91.43
2022-12-23T16:53:44.167Z,91.45
2022-12-23T16:56:18.031Z,91.45
2022-12-23T16:58:50.507Z,91.59
2022-12-23T17:01:26.051Z,91.66
2022-12-23T17:03:58.679Z,91.92
2022-12-23T17:06:31.565Z,92.06
2022-12-23T17:09:05.137Z,91.58
2022-12-23T17:11:41.442Z,91.46
2022-12-23T17:14:19.630Z,91.62
2022-12-23T17:16:52.914Z,91.63
2022-12-23T17:19:28.789Z,91.61
2022-12-23T17:22:04.584Z,91.90
2022-12-23T17:24:37.283Z,92.06
2022-12-23T17:27:15.704Z,91.76
2022-12-23T17:29:48.290Z,91.66
2022-12-23T17:32:21.222Z,91.66
2022-12-23T17:34:53.677Z,91.68
2022-12-23T17:37:26.105Z,91.59
2022-12-23T17:39:58.666Z,91.80
2022-12-23T17:42:31.951Z,91.60
2022-12-23T17:45:04.596Z,91.59
2022-12-23T17:47:37.053Z,91.58
2022-12-23T17:50:12.578Z,91.54
2022-12-23T17:52:45.014Z,91.53
2022-12-23T17:55:22.959Z,91.44
2022-12-23T17:57:55.632Z,91.50
2022-12-23T18:00:33.967Z,91.28
2022-12-23T18:03:08.347Z,90.97
2022-12-23T18:05:40.739Z,90.88
2022-12-23T18:08:13.111Z,91.06
2022-12-23T18:10:45.921Z,91.35
2022-12-23T18:13:20.702Z,91.03
2022-12-23T18:15:53.149Z,91.34
2022-12-23T18:18:37.783Z,91.29
2022-12-23T18:21:18.533Z,91.32
2022-12-23T18:23:51.576Z,91.51
2022-12-23T18:26:24.026Z,91.65
2022-12-23T18:28:56.417Z,91.21
2022-12-23T18:31:28.950Z,91.03
2022-12-23T18:34:01.430Z,91.36
2022-12-23T18:36:35.052Z,91.15
2022-12-23T18:39:07.583Z,91.40
2022-12-23T18:41:39.978Z,91.11
2022-12-23T18:44:20.691Z,91.40
2022-12-23T18:46:53.727Z,91.59
2022-12-23T18:49:26.151Z,91.61
2022-12-23T18:51:58.527Z,91.26
2022-12-23T18:54:31.085Z,91.44
2022-12-23T18:57:04.361Z,91.56
2022-12-23T18:59:39.053Z,91.44
2022-12-23T19:02:15.411Z,91.49
2022-12-23T19:04:47.797Z,91.20
2022-12-23T19:07:20.164Z,91.19
2022-12-23T19:09:52.537Z,91.12
2022-12-23T19:12:24.997Z,91.01
2022-12-23T19:14:57.435Z,91.16
2022-12-23T19:17:29.811Z,91.07
2022-12-23T19:20:02.196Z,90.89
2022-12-23T19:22:34.639Z,90.94
2022-12-23T19:25:08.512Z,90.88
2022-12-23T19:27:42.118Z,90.98
2022-12-23T19:30:17.433Z,91.24
2022-12-23T19:32:53.368Z,91.12
2022-12-23T19:35:25.721Z,91.32
2022-12-23T19:37:58.089Z,90.99
2022-12-23T19:40:31.305Z,91.00
2022-12-23T19:43:03.977Z,91.03
2022-12-23T19:45:36.540Z,91.03
2022-12-23T19:48:09.133Z,91.28
2022-12-23T19:50:41.515Z,91.46
2022-12-23T19:53:15.251Z,91.58
2022-12-23T19:55:59.086Z,91.29
2022-12-23T19:58:36.071Z,91.15
2022-12-23T20:01:11.248Z,91.32
2022-12-23T20:03:45.318Z,91.08
2022-12-23T20:06:19.638Z,90.99
2022-12-23T20:08:58.048Z,90.73
2022-12-23T20:11:35.972Z,91.16
2022-12-23T20:14:09.156Z,91.09
2022-12-23T20:16:42.187Z,91.01
2022-12-23T20:19:15.043Z,90.95
2022-12-23T20:21:47.775Z,90.91
2022-12-23T20:24:20.149Z,91.13
2022-12-23T20:26:52.547Z,91.21
2022-12-23T20:29:24.846Z,91.36
2022-12-23T20:31:57.246Z,91.07
2022-12-23T20:34:34.717Z,90.87
2022-12-23T20:37:11.930Z,91.02
2022-12-23T20:39:44.321Z,91.11
2022-12-23T20:42:16.678Z,91.28
2022-12-23T20:44:50.932Z,91.34
2022-12-23T20:47:23.334Z,91.01
2022-12-23T20:49:55.682Z,90.68
2022-12-23T20:52:28.087Z,90.59
2022-12-23T20:55:01.787Z,90.88
2022-12-23T20:57:36.024Z,91.13
2022-12-23T21:00:10.213Z,91.00
2022-12-23T21:02:42.840Z,90.77
2022-12-23T21:05:15.387Z,90.95
2022-12-23T21:07:47.900Z,91.15
2022-12-23T21:10:20.609Z,91.20
2022-12-23T21:12:52.981Z,90.92
2022-12-23T21:15:25.428Z,91.11
2022-12-23T21:17:57.805Z,90.80
2022-12-23T21:20:30.153Z,90.62
2022-12-23T21:23:02.598Z,90.49
2022-12-23T21:25:34.970Z,90.60
2022-12-23T21:28:07.602Z,90.82
2022-12-23T21:30:40.025Z,90.81
2022-12-23T21:33:13.856Z,90.93
2022-12-23T21:35:46.945Z,90.81
2022-12-23T21:38:19.352Z,90.77
2022-12-23T21:40:51.694Z,90.84
2022-12-23T21:43:24.050Z,90.73
2022-12-23T21:46:00.382Z,90.59
2022-12-23T21:48:35.955Z,90.70
2022-12-23T21:51:11.414Z,90.62
2022-12-23T21:53:45.027Z,90.70
2022-12-23T21:56:19.625Z,90.40
2022-12-23T21:58:55.481Z,90.30
2022-12-23T22:01:28.703Z,90.18
2022-12-23T22:04:01.212Z,90.24
2022-12-23T22:06:36.681Z,89.98
2022-12-23T22:09:11.653Z,90.08
2022-12-23T22:11:44.913Z,90.17
2022-12-23T22:14:19.139Z,90.54
2022-12-23T22:16:51.561Z,90.53
2022-12-23T22:19:24.067Z,90.30
2022-12-23T22:21:56.596Z,90.43
2022-12-23T22:24:29.326Z,90.31
2022-12-23T22:27:01.776Z,90.42
2022-12-23T22:29:34.329Z,90.30
2022-12-23T22:32:07.201Z,90.29
2022-12-23T22:34:39.634Z,89.90
2022-12-23T22:37:11.877Z,89.92
2022-12-23T22:39:44.226Z,90.19
2022-12-23T22:42:16.624Z,90.11
2022-12-23T22:44:49.029Z,90.05
2022-12-23T22:47:21.627Z,89.95
2022-12-23T22:49:54.030Z,90.03
2022-12-23T22:52:27.166Z,90.14
2022-12-23T22:54:59.513Z,90.19
2022-12-23T22:57:31.885Z,90.19
2022-12-23T23:00:11.881Z,90.30
2022-12-23T23:02:45.081Z,90.23
2022-12-23T23:05:17.969Z,90.16
2022-12-23T23:07:50.471Z,89.98
2022-12-23T23:10:22.868Z,89.90
2022-12-23T23:12:55.246Z,89.67
2022-12-23T23:15:27.613Z,89.74
2022-12-23T23:18:00.115Z,89.62
2022-12-23T23:20:32.512Z,89.62
2022-12-23T23:23:04.907Z,89.57
2022-12-23T23:25:37.334Z,89.39
2022-12-23T23:28:09.815Z,89.34
2022-12-23T23:30:42.720Z,89.31
2022-12-23T23:33:15.119Z,89.50
2022-12-23T23:35:47.489Z,89.05
2022-12-23T23:38:19.894Z,89.16
2022-12-23T23:40:54.620Z,89.36
2022-12-23T23:43:27.221Z,89.32
2022-12-23T23:45:59.769Z,89.13
2022-12-23T23:48:32.223Z,89.20
2022-12-23T23:51:09.199Z,89.22
2022-12-23T23:53:41.688Z,89.16
2022-12-23T23:56:14.163Z,89.06
2022-12-23T23:58:46.506Z,89.02
